createdAt,value
2022-11-13T00:02:15.817Z,54.97
2022-11-13T00:05:01.149Z,57.00
2022-11-13T00:07:46.810Z,57.30
2022-11-13T00:10:32.259Z,55.70
2022-11-13T00:13:17.370Z,52.30
2022-11-13T00:16:05.667Z,54.60
2022-11-13T00:18:50.776Z,55.80
2022-11-13T00:21:35.977Z,57.10
2022-11-13T00:24:20.954Z,58.70
2022-11-13T00:27:06.477Z,56.63
2022-11-13T00:29:51.800Z,55.70
2022-11-13T00:32:37.955Z,55.47
2022-11-13T00:35:23.051Z,55.87
2022-11-13T00:38:08.121Z,57.47
2022-11-13T00:40:53.341Z,58.90
2022-11-13T00:43:38.661Z,62.30
2022-11-13T00:46:23.995Z,59.60
2022-11-13T00:49:09.898Z,60.80
2022-11-13T00:51:55.278Z,59.73
2022-11-13T00:54:40.466Z,61.33
2022-11-13T00:57:25.971Z,60.73
2022-11-13T01:00:12.128Z,61.77
2022-11-13T01:03:00.518Z,58.80
2022-11-13T01:05:46.803Z,60.63
2022-11-13T01:08:31.902Z,59.63
2022-11-13T01:11:19.974Z,59.97
2022-11-13T01:14:05.007Z,64.47
2022-11-13T01:16:50.122Z,63.13
2022-11-13T01:19:35.341Z,62.60
2022-11-13T01:22:20.502Z,61.70
2022-11-13T01:25:06.487Z,64.80
2022-11-13T01:27:51.761Z,64.87
2022-11-13T01:30:39.198Z,60.80
2022-11-13T01:33:24.210Z,59.97
2022-11-13T01:36:13.840Z,62.00
2022-11-13T01:38:59.437Z,60.40
2022-11-13T01:41:44.664Z,58.60
2022-11-13T01:44:56.291Z,59.00
2022-11-13T01:47:41.528Z,61.23
2022-11-13T01:50:26.671Z,58.83
2022-11-13T01:53:12.789Z,59.03
2022-11-13T01:55:58.004Z,59.23
2022-11-13T01:58:51.453Z,56.73
2022-11-13T02:01:36.878Z,55.63
2022-11-13T02:04:23.188Z,60.27
2022-11-13T02:07:11.558Z,61.20
2022-11-13T02:09:58.541Z,58.97
2022-11-13T02:12:49.514Z,60.87
2022-11-13T02:15:35.776Z,59.90
2022-11-13T02:18:24.158Z,58.93
2022-11-13T02:21:09.497Z,57.70
2022-11-13T02:24:09.009Z,59.00
2022-11-13T02:26:58.522Z,58.00
2022-11-13T02:29:44.009Z,58.77
2022-11-13T02:32:29.890Z,56.67
2022-11-13T02:35:18.032Z,57.90
2022-11-13T02:38:06.078Z,58.13
2022-11-13T02:40:51.004Z,56.43
2022-11-13T02:43:36.233Z,57.07
2022-11-13T02:46:21.684Z,57.80
2022-11-13T02:49:07.704Z,58.43
2022-11-13T02:51:53.087Z,55.77
2022-11-13T02:54:38.132Z,56.17
2022-11-13T02:57:23.770Z,56.83
2022-11-13T03:00:13.850Z,56.07
2022-11-13T03:02:59.873Z,55.20
2022-11-13T03:05:49.898Z,54.60
2022-11-13T03:08:36.194Z,52.57
2022-11-13T03:11:22.273Z,56.90
2022-11-13T03:14:07.346Z,56.30
2022-11-13T03:16:52.388Z,56.47
2022-11-13T03:19:37.885Z,57.47
2022-11-13T03:22:23.369Z,57.10
2022-11-13T03:25:10.789Z,54.43
2022-11-13T03:27:56.903Z,57.77
2022-11-13T03:30:42.391Z,56.43
2022-11-13T03:33:27.912Z,57.60
2022-11-13T03:36:13.103Z,58.30
2022-11-13T03:38:59.359Z,59.30
2022-11-13T03:41:44.560Z,57.93
2022-11-13T03:44:30.026Z,55.03
2022-11-13T03:47:15.664Z,53.37
2022-11-13T03:50:00.868Z,54.53
2022-11-13T03:52:46.575Z,51.60
2022-11-13T03:55:32.041Z,52.17
2022-11-13T03:58:17.578Z,52.97
2022-11-13T04:01:02.752Z,50.43
2022-11-13T04:03:48.101Z,52.97
2022-11-13T04:06:33.479Z,51.83
2022-11-13T04:09:18.874Z,53.53
2022-11-13T04:12:04.408Z,54.97
2022-11-13T04:14:49.862Z,53.97
2022-11-13T04:17:35.279Z,52.80
2022-11-13T04:20:20.891Z,52.60
2022-11-13T04:23:11.386Z,55.13
2022-11-13T04:25:57.251Z,52.70
2022-11-13T04:28:42.849Z,51.70
2022-11-13T04:31:27.853Z,51.57
2022-11-13T04:34:13.325Z,52.53
2022-11-13T04:36:58.903Z,53.10
2022-11-13T04:39:44.200Z,52.37
2022-11-13T04:42:48.160Z,54.93
2022-11-13T04:45:34.301Z,54.47
2022-11-13T04:48:19.544Z,53.10
2022-11-13T04:51:05.359Z,53.27
2022-11-13T04:53:50.858Z,52.67
2022-11-13T04:56:36.352Z,52.60
2022-11-13T04:59:21.892Z,53.27
2022-11-13T05:02:07.518Z,53.67
2022-11-13T05:04:53.000Z,55.13
2022-11-13T05:07:38.564Z,53.87
2022-11-13T05:10:23.694Z,50.37
2022-11-13T05:13:09.093Z,52.43
2022-11-13T05:16:04.089Z,53.23
2022-11-13T05:18:49.470Z,49.30
2022-11-13T05:21:38.668Z,47.23
2022-11-13T05:24:23.839Z,48.23
2022-11-13T05:27:14.203Z,49.73
2022-11-13T05:30:02.062Z,49.73
2022-11-13T05:32:47.409Z,50.90
2022-11-13T05:35:32.898Z,49.83
2022-11-13T05:38:18.348Z,50.00
2022-11-13T05:41:07.616Z,48.83
2022-11-13T05:43:58.049Z,48.93
2022-11-13T05:46:44.500Z,49.47
2022-11-13T05:49:30.109Z,49.27
2022-11-13T05:52:15.582Z,49.40
2022-11-13T05:55:00.937Z,47.67
2022-11-13T05:57:46.430Z,49.30
2022-11-13T06:00:31.825Z,49.43
2022-11-13T06:03:17.287Z,48.97
2022-11-13T06:06:02.537Z,50.73
2022-11-13T06:08:49.279Z,51.33
2022-11-13T06:11:34.774Z,48.53
2022-11-13T06:14:19.770Z,50.27
2022-11-13T06:17:05.166Z,49.30
2022-11-13T06:19:50.489Z,51.60
2022-11-13T06:22:35.993Z,51.80
2022-11-13T06:25:21.574Z,51.40
2022-11-13T06:28:06.777Z,50.07
2022-11-13T06:30:52.253Z,51.73
2022-11-13T06:33:39.173Z,47.30
2022-11-13T06:36:29.578Z,48.43
2022-11-13T06:39:14.947Z,50.60
2022-11-13T06:42:00.245Z,48.20
2022-11-13T06:44:45.684Z,47.93
2022-11-13T06:47:31.267Z,46.80
2022-11-13T06:50:16.654Z,48.03
2022-11-13T06:53:01.771Z,47.10
2022-11-13T06:55:50.242Z,45.97
2022-11-13T06:58:35.990Z,45.47
2022-11-13T07:01:23.804Z,45.30
2022-11-13T07:04:12.470Z,43.87
2022-11-13T07:06:57.741Z,42.70
2022-11-13T07:09:43.612Z,41.13
2022-11-13T07:12:28.743Z,42.83
2022-11-13T07:15:16.512Z,43.03
2022-11-13T07:18:03.176Z,44.27
2022-11-13T07:20:48.760Z,40.73
2022-11-13T07:23:37.000Z,40.63
2022-11-13T07:26:22.839Z,44.03
2022-11-13T07:29:08.207Z,44.90
2022-11-13T07:31:54.367Z,42.97
2022-11-13T07:34:39.478Z,41.33
2022-11-13T07:37:24.750Z,42.30
2022-11-13T07:40:11.410Z,42.37
2022-11-13T07:42:59.023Z,42.13
2022-11-13T07:45:44.508Z,41.63
2022-11-13T07:48:30.500Z,41.10
2022-11-13T07:51:16.307Z,41.03
2022-11-13T07:54:01.565Z,42.23
2022-11-13T07:56:47.402Z,42.77
2022-11-13T07:59:32.698Z,40.13
2022-11-13T08:02:21.137Z,41.00
2022-11-13T08:05:10.563Z,40.93
2022-11-13T08:07:56.238Z,38.77
2022-11-13T08:10:42.352Z,40.47
2022-11-13T08:13:27.905Z,39.77
2022-11-13T08:16:13.185Z,41.20
2022-11-13T08:18:58.612Z,41.83
2022-11-13T08:21:44.079Z,41.60
2022-11-13T08:24:29.215Z,40.70
2022-11-13T08:27:14.570Z,38.80
2022-11-13T08:29:59.844Z,40.63
2022-11-13T08:32:45.634Z,39.60
2022-11-13T08:35:31.378Z,40.53
2022-11-13T08:38:16.961Z,39.90
2022-11-13T08:41:08.957Z,38.27
2022-11-13T08:43:55.032Z,39.13
2022-11-13T08:46:40.445Z,38.83
2022-11-13T08:49:25.941Z,38.27
2022-11-13T08:52:11.080Z,39.50
2022-11-13T08:54:56.545Z,38.73
2022-11-13T08:57:42.152Z,37.60
2022-11-13T09:00:31.711Z,39.67
2022-11-13T09:03:17.283Z,39.03
2022-11-13T09:06:07.498Z,38.77
2022-11-13T09:08:52.998Z,40.03
2022-11-13T09:11:38.523Z,39.97
2022-11-13T09:14:25.092Z,39.60
2022-11-13T09:17:10.340Z,39.67
2022-11-13T09:19:59.496Z,40.70
2022-11-13T09:22:47.281Z,38.63
2022-11-13T09:25:37.531Z,38.93
2022-11-13T09:28:23.537Z,39.50
2022-11-13T09:31:08.760Z,36.83
2022-11-13T09:33:54.140Z,36.30
2022-11-13T09:36:39.403Z,36.77
2022-11-13T09:39:24.941Z,37.00
2022-11-13T09:42:13.196Z,36.45
2022-11-13T09:45:17.101Z,35.33
2022-11-13T09:48:35.490Z,35.40
2022-11-13T09:51:26.458Z,33.97
2022-11-13T09:54:14.382Z,34.07
2022-11-13T09:57:29.221Z,34.75
2022-11-13T10:00:19.217Z,34.03
2022-11-13T10:03:10.082Z,36.57
2022-11-13T10:06:21.175Z,35.13
2022-11-13T10:09:25.384Z,33.55
2022-11-13T10:12:13.943Z,32.42
2022-11-13T10:15:03.582Z,33.38
2022-11-13T10:17:55.250Z,33.67
2022-11-13T10:20:50.462Z,33.22
2022-11-13T10:23:38.122Z,29.40
2022-11-13T10:26:27.215Z,30.17
2022-11-13T10:29:18.013Z,30.60
2022-11-13T10:32:27.682Z,28.10
2022-11-13T10:35:45.064Z,28.70
2022-11-13T10:38:44.505Z,26.85
2022-11-13T10:41:30.208Z,27.27
2022-11-13T10:44:35.414Z,27.70
2022-11-13T10:47:49.110Z,26.38
2022-11-13T10:50:31.014Z,26.77
2022-11-13T10:53:18.353Z,26.90
2022-11-13T10:56:31.193Z,25.80
2022-11-13T10:59:19.524Z,26.73
2022-11-13T11:02:22.441Z,27.10
2022-11-13T11:05:21.389Z,27.50
2022-11-13T11:08:10.921Z,27.30
2022-11-13T11:11:26.595Z,26.65
2022-11-13T11:14:22.367Z,25.60
2022-11-13T11:17:11.033Z,25.25
2022-11-13T11:20:01.928Z,26.00
2022-11-13T11:22:53.056Z,25.00
2022-11-13T11:25:46.337Z,26.73
2022-11-13T11:28:49.601Z,26.77
2022-11-13T11:31:55.732Z,28.63
2022-11-13T11:34:45.896Z,27.10
2022-11-13T11:37:41.480Z,27.73
2022-11-13T11:40:36.236Z,26.90
2022-11-13T11:43:34.115Z,28.50
2022-11-13T11:46:23.859Z,25.33
2022-11-13T11:49:10.741Z,24.83
2022-11-13T11:52:19.721Z,25.00
2022-11-13T11:55:31.396Z,24.83
2022-11-13T11:58:37.849Z,25.77
2022-11-13T12:01:38.012Z,23.88
2022-11-13T12:04:29.053Z,25.40
2022-11-13T12:07:37.898Z,23.45
2022-11-13T12:10:26.219Z,25.48
2022-11-13T12:13:50.296Z,23.17
2022-11-13T12:17:02.067Z,24.45
2022-11-13T12:20:07.913Z,24.40
2022-11-13T12:23:08.368Z,23.75
2022-11-13T12:26:07.724Z,24.05
2022-11-13T12:29:08.735Z,23.80
2022-11-13T12:32:21.948Z,22.58
2022-11-13T12:35:16.852Z,21.67
2022-11-13T12:38:07.804Z,22.20
2022-11-13T12:41:16.450Z,21.30
2022-11-13T12:44:16.602Z,20.33
2022-11-13T12:47:02.165Z,19.85
2022-11-13T12:49:58.165Z,21.17
2022-11-13T12:52:43.393Z,20.38
2022-11-13T12:55:32.155Z,19.42
2022-11-13T12:58:22.115Z,20.08
2022-11-13T13:01:17.930Z,20.38
2022-11-13T13:04:15.448Z,19.02
2022-11-13T13:07:31.383Z,20.70
2022-11-13T13:10:59.399Z,25.90
2022-11-13T13:13:56.514Z,23.55
2022-11-13T13:16:41.658Z,20.15
2022-11-13T13:19:32.706Z,19.58
2022-11-13T13:22:26.148Z,18.70
2022-11-13T13:25:32.015Z,17.90
2022-11-13T13:28:24.794Z,18.98
2022-11-13T13:31:12.582Z,17.80
2022-11-13T13:34:20.741Z,19.00
2022-11-13T13:37:25.043Z,19.13
2022-11-13T13:40:59.881Z,20.25
2022-11-13T13:44:02.312Z,19.48
2022-11-13T13:46:47.932Z,22.17
2022-11-13T13:49:33.863Z,19.88
2022-11-13T13:52:27.529Z,19.88
2022-11-13T13:55:43.729Z,20.13
2022-11-13T13:58:37.165Z,21.05
2022-11-13T14:01:28.928Z,19.92
2022-11-13T14:04:19.555Z,20.27
2022-11-13T14:07:27.645Z,21.08
2022-11-13T14:10:13.122Z,20.33
2022-11-13T14:12:58.512Z,19.83
2022-11-13T14:15:43.763Z,18.90
2022-11-13T14:18:29.396Z,19.35
2022-11-13T14:21:21.073Z,20.52
2022-11-13T14:24:14.556Z,21.35
2022-11-13T14:27:20.353Z,22.08
2022-11-13T14:30:09.813Z,20.77
2022-11-13T14:32:55.602Z,21.13
2022-11-13T14:35:41.042Z,21.92
2022-11-13T14:38:29.721Z,22.02
2022-11-13T14:41:22.588Z,21.15
2022-11-13T14:44:11.576Z,22.23
2022-11-13T14:47:03.338Z,21.67
2022-11-13T14:49:49.004Z,18.88
2022-11-13T14:52:34.059Z,21.98
2022-11-13T14:55:34.472Z,21.90
2022-11-13T14:58:35.800Z,23.23
2022-11-13T15:01:23.725Z,24.83
2022-11-13T15:04:09.161Z,26.58
2022-11-13T15:06:58.976Z,28.52
2022-11-13T15:09:44.260Z,25.13
2022-11-13T15:12:29.518Z,24.20
2022-11-13T15:15:17.931Z,25.33
2022-11-13T15:18:03.947Z,25.83
2022-11-13T15:20:49.270Z,27.30
2022-11-13T15:23:35.012Z,26.17
2022-11-13T15:26:20.479Z,25.25
2022-11-13T15:29:06.537Z,24.45
2022-11-13T15:31:51.796Z,25.42
2022-11-13T15:34:37.314Z,25.63
2022-11-13T15:37:22.409Z,25.65
2022-11-13T15:40:08.589Z,25.02
2022-11-13T15:42:54.141Z,25.48
2022-11-13T15:45:44.045Z,24.05
2022-11-13T15:48:29.884Z,24.67
2022-11-13T15:51:22.828Z,26.67
2022-11-13T15:54:26.790Z,26.80
2022-11-13T15:57:22.107Z,26.35
2022-11-13T16:00:14.982Z,25.40
2022-11-13T16:03:00.348Z,27.25
2022-11-13T16:05:45.510Z,27.08
2022-11-13T16:08:30.915Z,26.02
2022-11-13T16:11:18.172Z,26.65
2022-11-13T16:14:03.571Z,25.83
2022-11-13T16:16:50.620Z,26.20
2022-11-13T16:19:37.726Z,29.58
2022-11-13T16:22:27.141Z,29.40
2022-11-13T16:25:17.199Z,29.75
2022-11-13T16:28:02.644Z,31.08
2022-11-13T16:30:49.353Z,31.13
2022-11-13T16:33:34.493Z,32.22
2022-11-13T16:36:22.397Z,31.75
2022-11-13T16:39:16.105Z,31.38
2022-11-13T16:42:02.075Z,30.20
2022-11-13T16:44:47.364Z,30.38
2022-11-13T16:47:32.786Z,31.47
2022-11-13T16:50:23.756Z,29.07
2022-11-13T16:53:10.037Z,30.60
2022-11-13T16:55:55.589Z,33.37
2022-11-13T16:58:42.152Z,29.77
2022-11-13T17:01:27.280Z,31.93
2022-11-13T17:04:14.883Z,31.17
2022-11-13T17:07:00.440Z,31.20
2022-11-13T17:09:46.415Z,28.87
2022-11-13T17:12:31.996Z,29.57
2022-11-13T17:15:17.471Z,31.30
2022-11-13T17:18:03.004Z,31.67
2022-11-13T17:20:50.982Z,31.33
2022-11-13T17:23:36.194Z,31.63
2022-11-13T17:26:22.575Z,34.27
2022-11-13T17:29:08.072Z,34.13
2022-11-13T17:31:53.466Z,32.72
2022-11-13T17:34:38.770Z,32.40
2022-11-13T17:37:25.238Z,32.42
2022-11-13T17:40:11.795Z,31.33
2022-11-13T17:42:57.243Z,30.80
2022-11-13T17:45:42.687Z,31.17
2022-11-13T17:48:31.531Z,30.70
2022-11-13T17:51:17.013Z,31.67
2022-11-13T17:54:02.442Z,29.40
2022-11-13T17:56:47.847Z,31.23
2022-11-13T17:59:32.983Z,29.30
2022-11-13T18:02:18.425Z,33.10
2022-11-13T18:05:04.672Z,32.40
2022-11-13T18:07:49.980Z,30.03
2022-11-13T18:10:38.543Z,30.30
2022-11-13T18:13:24.931Z,27.53
2022-11-13T18:16:14.551Z,28.40
2022-11-13T18:19:01.314Z,29.20
2022-11-13T18:21:46.808Z,29.43
2022-11-13T18:24:32.258Z,29.03
2022-11-13T18:27:17.474Z,27.73
2022-11-13T18:30:03.428Z,29.17
2022-11-13T18:32:48.614Z,27.87
2022-11-13T18:35:33.898Z,26.13
2022-11-13T18:38:19.167Z,28.10
2022-11-13T18:41:08.002Z,26.40
2022-11-13T18:43:53.361Z,27.50
2022-11-13T18:46:39.483Z,29.30
2022-11-13T18:49:24.962Z,28.13
2022-11-13T18:52:10.642Z,27.47
2022-11-13T18:54:55.842Z,29.87
2022-11-13T18:57:41.055Z,29.07
2022-11-13T19:00:26.557Z,29.17
2022-11-13T19:03:12.184Z,27.60
2022-11-13T19:05:57.185Z,30.43
2022-11-13T19:08:43.481Z,31.60
2022-11-13T19:11:30.403Z,31.53
2022-11-13T19:14:17.548Z,30.90
2022-11-13T19:17:02.732Z,33.10
2022-11-13T19:19:48.122Z,34.83
2022-11-13T19:22:33.216Z,35.37
2022-11-13T19:25:18.910Z,35.97
2022-11-13T19:28:04.697Z,36.67
2022-11-13T19:30:54.438Z,36.30
2022-11-13T19:33:40.580Z,36.90
2022-11-13T19:36:28.276Z,38.80
2022-11-13T19:39:13.836Z,38.40
2022-11-13T19:41:59.080Z,40.40
2022-11-13T19:44:44.483Z,43.90
2022-11-13T19:47:30.106Z,48.20
2022-11-13T19:50:16.047Z,47.50
2022-11-13T19:53:01.249Z,48.80
2022-11-13T19:55:56.240Z,47.87
2022-11-13T19:58:44.232Z,50.33
2022-11-13T20:01:32.101Z,48.20
2022-11-13T20:04:17.832Z,47.53
2022-11-13T20:07:03.397Z,48.50
2022-11-13T20:09:48.909Z,48.53
2022-11-13T20:12:34.148Z,50.50
2022-11-13T20:15:19.551Z,50.90
2022-11-13T20:18:05.051Z,50.50
2022-11-13T20:20:54.462Z,47.47
2022-11-13T20:23:41.368Z,51.47
2022-11-13T20:26:27.517Z,50.43
2022-11-13T20:29:12.884Z,46.80
2022-11-13T20:31:59.327Z,44.77
2022-11-13T20:34:44.587Z,45.63
2022-11-13T20:37:29.952Z,45.20
2022-11-13T20:40:15.641Z,44.17
2022-11-13T20:43:00.737Z,42.50
2022-11-13T20:45:45.917Z,41.80
2022-11-13T20:48:31.532Z,42.13
2022-11-13T20:51:20.402Z,44.13
2022-11-13T20:54:05.975Z,43.10
2022-11-13T20:56:51.290Z,40.27
2022-11-13T20:59:36.742Z,44.30
2022-11-13T21:02:21.830Z,43.60
2022-11-13T21:05:08.160Z,45.70
2022-11-13T21:07:53.822Z,42.87
2022-11-13T21:10:38.858Z,42.87
2022-11-13T21:13:24.367Z,39.00
2022-11-13T21:16:09.890Z,40.70
2022-11-13T21:18:57.236Z,43.97
2022-11-13T21:21:42.740Z,45.73
2022-11-13T21:24:28.182Z,43.60
2022-11-13T21:27:13.708Z,44.53
2022-11-13T21:29:59.431Z,44.73
2022-11-13T21:32:45.038Z,44.47
2022-11-13T21:35:30.758Z,42.30
2022-11-13T21:38:15.815Z,45.40
2022-11-13T21:41:21.872Z,45.30
2022-11-13T21:44:10.486Z,45.53
2022-11-13T21:46:56.109Z,45.27
2022-11-13T21:49:41.567Z,45.20
2022-11-13T21:52:26.859Z,46.30
2022-11-13T21:55:12.176Z,44.30
2022-11-13T21:57:57.699Z,43.33
2022-11-13T22:00:44.437Z,45.20
2022-11-13T22:03:29.728Z,45.43
2022-11-13T22:06:24.293Z,44.00
2022-11-13T22:09:18.271Z,45.47
2022-11-13T22:12:03.725Z,39.67
2022-11-13T22:14:49.227Z,43.50
2022-11-13T22:17:34.580Z,44.63
2022-11-13T22:20:20.037Z,44.23
2022-11-13T22:23:06.141Z,42.53
2022-11-13T22:25:55.755Z,43.53
2022-11-13T22:28:45.232Z,44.43
2022-11-13T22:31:31.532Z,42.57
2022-11-13T22:34:18.207Z,43.00
2022-11-13T22:37:03.511Z,41.90
2022-11-13T22:39:48.759Z,43.40
2022-11-13T22:42:34.031Z,39.20
2022-11-13T22:45:23.570Z,41.83
2022-11-13T22:48:11.262Z,41.67
2022-11-13T22:50:56.837Z,41.57
2022-11-13T22:53:47.505Z,41.87
2022-11-13T22:56:34.309Z,40.53
2022-11-13T22:59:19.736Z,37.83
2022-11-13T23:02:05.180Z,39.70
2022-11-13T23:04:50.657Z,39.77
2022-11-13T23:07:36.463Z,35.30
2022-11-13T23:10:25.391Z,36.10
2022-11-13T23:13:10.612Z,39.07
2022-11-13T23:15:56.433Z,37.77
2022-11-13T23:18:42.021Z,37.60
2022-11-13T23:21:28.630Z,37.47
2022-11-13T23:24:13.893Z,36.17
2022-11-13T23:26:59.030Z,38.47
2022-11-13T23:29:48.855Z,39.43
2022-11-13T23:32:35.304Z,38.33
2022-11-13T23:35:20.939Z,38.13
2022-11-13T23:38:06.006Z,38.00
2022-11-13T23:40:55.353Z,37.43
2022-11-13T23:44:07.700Z,38.27
2022-11-13T23:46:46.674Z,37.40
2022-11-13T23:49:31.934Z,39.23
2022-11-13T23:52:17.510Z,39.40
2022-11-13T23:55:03.135Z,38.97
2022-11-13T23:57:55.245Z,38.60
